sensor_id;sensor_type;location;lat;lon;timestamp;pressure;altitude;pressure_sealevel;temperature;humidity
70468;BME280;57934;51.532;7.684;2022-12-18T00:03:47;101615.50;;;-8.10;91.73
70468;BME280;57934;51.532;7.684;2022-12-18T00:06:14;101619.00;;;-8.14;91.85
70468;BME280;57934;51.532;7.684;2022-12-18T00:08:41;101614.91;;;-8.20;92.11
70468;BME280;57934;51.532;7.684;2022-12-18T00:11:10;101618.38;;;-8.23;92.41
70468;BME280;57934;51.532;7.684;2022-12-18T00:13:36;101620.78;;;-8.18;92.15
70468;BME280;57934;51.532;7.684;2022-12-18T00:16:04;101620.69;;;-8.13;91.94
70468;BME280;57934;51.532;7.684;2022-12-18T00:18:31;101618.97;;;-8.13;91.96
70468;BME280;57934;51.532;7.684;2022-12-18T00:21:00;101624.13;;;-8.14;91.99
70468;BME280;57934;51.532;7.684;2022-12-18T00:23:28;101626.50;;;-8.07;91.84
70468;BME280;57934;51.532;7.684;2022-12-18T00:25:58;101629.84;;;-8.05;91.95
70468;BME280;57934;51.532;7.684;2022-12-18T00:28:24;101630.50;;;-7.98;92.38
70468;BME280;57934;51.532;7.684;2022-12-18T00:30:50;101636.22;;;-7.88;92.59
70468;BME280;57934;51.532;7.684;2022-12-18T00:33:17;101646.31;;;-7.82;92.65
70468;BME280;57934;51.532;7.684;2022-12-18T00:35:44;101645.56;;;-7.87;92.35
70468;BME280;57934;51.532;7.684;2022-12-18T00:38:10;101645.50;;;-7.84;92.18
70468;BME280;57934;51.532;7.684;2022-12-18T00:40:36;101637.13;;;-7.91;92.26
70468;BME280;57934;51.532;7.684;2022-12-18T00:43:02;101639.47;;;-7.83;92.19
70468;BME280;57934;51.532;7.684;2022-12-18T00:45:29;101645.44;;;-7.83;92.48
70468;BME280;57934;51.532;7.684;2022-12-18T00:47:56;101643.97;;;-7.92;92.71
70468;BME280;57934;51.532;7.684;2022-12-18T00:50:24;101643.16;;;-7.94;92.73
70468;BME280;57934;51.532;7.684;2022-12-18T00:52:50;101638.31;;;-8.03;92.82
70468;BME280;57934;51.532;7.684;2022-12-18T00:55:17;101641.72;;;-8.04;92.61
70468;BME280;57934;51.532;7.684;2022-12-18T00:57:44;101644.34;;;-8.05;92.92
70468;BME280;57934;51.532;7.684;2022-12-18T01:00:13;101648.72;;;-8.09;92.70
70468;BME280;57934;51.532;7.684;2022-12-18T01:02:41;101661.56;;;-8.10;92.79
70468;BME280;57934;51.532;7.684;2022-12-18T01:05:08;101651.34;;;-8.12;92.81
70468;BME280;57934;51.532;7.684;2022-12-18T01:07:34;101648.91;;;-8.17;92.62
70468;BME280;57934;51.532;7.684;2022-12-18T01:10:03;101645.59;;;-8.20;92.86
70468;BME280;57934;51.532;7.684;2022-12-18T01:12:29;101638.84;;;-8.23;92.57
70468;BME280;57934;51.532;7.684;2022-12-18T01:14:55;101649.13;;;-8.24;92.53
70468;BME280;57934;51.532;7.684;2022-12-18T01:17:21;101646.50;;;-8.23;92.84
70468;BME280;57934;51.532;7.684;2022-12-18T01:19:47;101639.56;;;-8.18;92.39
70468;BME280;57934;51.532;7.684;2022-12-18T01:22:13;101637.94;;;-8.22;92.08
70468;BME280;57934;51.532;7.684;2022-12-18T01:24:39;101644.78;;;-8.22;92.38
70468;BME280;57934;51.532;7.684;2022-12-18T01:27:05;101641.47;;;-8.26;91.84
70468;BME280;57934;51.532;7.684;2022-12-18T01:29:31;101647.47;;;-8.27;92.14
70468;BME280;57934;51.532;7.684;2022-12-18T01:31:57;101650.16;;;-8.31;91.94
70468;BME280;57934;51.532;7.684;2022-12-18T01:34:24;101650.16;;;-8.31;92.48
70468;BME280;57934;51.532;7.684;2022-12-18T01:36:50;101662.94;;;-8.31;92.46
70468;BME280;57934;51.532;7.684;2022-12-18T01:39:18;101659.34;;;-8.24;91.59
70468;BME280;57934;51.532;7.684;2022-12-18T01:41:44;101645.63;;;-8.22;91.53
70468;BME280;57934;51.532;7.684;2022-12-18T01:47:19;101635.28;;;-8.17;91.39
70468;BME280;57934;51.532;7.684;2022-12-18T01:49:46;101635.09;;;-8.11;91.46
70468;BME280;57934;51.532;7.684;2022-12-18T01:52:12;101634.31;;;-8.13;91.06
70468;BME280;57934;51.532;7.684;2022-12-18T01:54:38;101633.59;;;-8.18;91.30
70468;BME280;57934;51.532;7.684;2022-12-18T01:57:04;101635.38;;;-8.22;91.81
70468;BME280;57934;51.532;7.684;2022-12-18T01:59:32;101633.72;;;-8.23;91.94
70468;BME280;57934;51.532;7.684;2022-12-18T02:01:59;101626.13;;;-8.26;91.95
70468;BME280;57934;51.532;7.684;2022-12-18T02:04:27;101636.44;;;-8.29;91.83
70468;BME280;57934;51.532;7.684;2022-12-18T02:09:57;101637.19;;;-8.25;91.95
70468;BME280;57934;51.532;7.684;2022-12-18T02:12:34;101627.13;;;-8.31;92.17
70468;BME280;57934;51.532;7.684;2022-12-18T02:15:49;101624.44;;;-8.27;92.34
70468;BME280;57934;51.532;7.684;2022-12-18T02:17:58;101625.97;;;-8.20;91.85
70468;BME280;57934;51.532;7.684;2022-12-18T02:26:23;101612.13;;;-8.12;91.42
70468;BME280;57934;51.532;7.684;2022-12-18T02:29:06;101623.34;;;-8.18;91.74
70468;BME280;57934;51.532;7.684;2022-12-18T02:31:40;101617.38;;;-8.17;91.68
70468;BME280;57934;51.532;7.684;2022-12-18T02:34:09;101621.75;;;-8.22;91.57
70468;BME280;57934;51.532;7.684;2022-12-18T02:36:40;101620.72;;;-8.15;91.72
70468;BME280;57934;51.532;7.684;2022-12-18T02:39:09;101621.25;;;-8.02;91.83
70468;BME280;57934;51.532;7.684;2022-12-18T02:41:41;101628.25;;;-8.09;91.48
70468;BME280;57934;51.532;7.684;2022-12-18T02:44:10;101622.13;;;-8.03;91.68
70468;BME280;57934;51.532;7.684;2022-12-18T02:46:45;101622.06;;;-8.02;91.91
70468;BME280;57934;51.532;7.684;2022-12-18T02:49:36;101616.72;;;-7.93;92.06
70468;BME280;57934;51.532;7.684;2022-12-18T02:52:31;101616.63;;;-7.89;92.48
70468;BME280;57934;51.532;7.684;2022-12-18T02:55:14;101617.50;;;-7.90;92.23
70468;BME280;57934;51.532;7.684;2022-12-18T02:57:54;101614.09;;;-7.91;92.39
70468;BME280;57934;51.532;7.684;2022-12-18T03:03:27;101618.44;;;-7.93;92.54
70468;BME280;57934;51.532;7.684;2022-12-18T03:06:02;101612.47;;;-7.94;92.57
70468;BME280;57934;51.532;7.684;2022-12-18T03:08:32;101610.63;;;-7.88;92.30
70468;BME280;57934;51.532;7.684;2022-12-18T03:11:03;101601.31;;;-7.91;92.97
70468;BME280;57934;51.532;7.684;2022-12-18T03:13:35;101600.41;;;-7.88;92.76
70468;BME280;57934;51.532;7.684;2022-12-18T03:16:06;101595.28;;;-7.88;92.75
70468;BME280;57934;51.532;7.684;2022-12-18T03:18:36;101604.41;;;-7.80;92.47
70468;BME280;57934;51.532;7.684;2022-12-18T03:21:05;101603.53;;;-7.79;92.70
70468;BME280;57934;51.532;7.684;2022-12-18T03:23:40;101596.63;;;-7.77;92.57
70468;BME280;57934;51.532;7.684;2022-12-18T03:26:10;101593.66;;;-7.61;93.15
70468;BME280;57934;51.532;7.684;2022-12-18T03:28:45;101597.34;;;-7.42;93.39
70468;BME280;57934;51.532;7.684;2022-12-18T03:31:14;101609.00;;;-7.32;94.10
70468;BME280;57934;51.532;7.684;2022-12-18T03:33:51;101603.53;;;-7.21;94.43
70468;BME280;57934;51.532;7.684;2022-12-18T03:36:18;101603.44;;;-7.18;94.05
70468;BME280;57934;51.532;7.684;2022-12-18T03:38:44;101607.78;;;-7.20;93.63
70468;BME280;57934;51.532;7.684;2022-12-18T03:41:32;101609.72;;;-7.28;93.31
70468;BME280;57934;51.532;7.684;2022-12-18T03:44:29;101624.50;;;-7.36;93.57
70468;BME280;57934;51.532;7.684;2022-12-18T03:47:19;101614.19;;;-7.33;93.34
70468;BME280;57934;51.532;7.684;2022-12-18T03:50:09;101602.31;;;-7.37;92.72
70468;BME280;57934;51.532;7.684;2022-12-18T03:52:41;101600.50;;;-7.34;92.75
70468;BME280;57934;51.532;7.684;2022-12-18T03:55:12;101595.91;;;-7.23;92.97
70468;BME280;57934;51.532;7.684;2022-12-18T03:57:41;101592.03;;;-7.08;93.45
70468;BME280;57934;51.532;7.684;2022-12-18T04:00:13;101595.00;;;-6.93;93.48
70468;BME280;57934;51.532;7.684;2022-12-18T04:02:43;101597.47;;;-6.90;92.74
70468;BME280;57934;51.532;7.684;2022-12-18T04:05:14;101600.16;;;-6.95;92.31
70468;BME280;57934;51.532;7.684;2022-12-18T04:07:42;101605.91;;;-6.87;92.72
70468;BME280;57934;51.532;7.684;2022-12-18T04:10:11;101606.53;;;-6.80;92.78
70468;BME280;57934;51.532;7.684;2022-12-18T04:12:38;101616.00;;;-6.82;92.99
70468;BME280;57934;51.532;7.684;2022-12-18T04:15:05;101615.22;;;-6.84;93.06
70468;BME280;57934;51.532;7.684;2022-12-18T04:17:31;101616.41;;;-6.94;93.13
70468;BME280;57934;51.532;7.684;2022-12-18T04:19:58;101608.09;;;-7.03;93.27
70468;BME280;57934;51.532;7.684;2022-12-18T04:22:24;101603.78;;;-7.02;94.03
70468;BME280;57934;51.532;7.684;2022-12-18T04:24:56;101615.03;;;-7.06;93.69
70468;BME280;57934;51.532;7.684;2022-12-18T04:27:29;101610.06;;;-7.11;93.66
70468;BME280;57934;51.532;7.684;2022-12-18T04:29:57;101604.28;;;-7.17;93.45
70468;BME280;57934;51.532;7.684;2022-12-18T04:32:23;101601.78;;;-7.19;93.44
70468;BME280;57934;51.532;7.684;2022-12-18T04:34:49;101591.47;;;-7.17;93.21
70468;BME280;57934;51.532;7.684;2022-12-18T04:37:16;101596.34;;;-7.10;93.38
70468;BME280;57934;51.532;7.684;2022-12-18T04:39:43;101597.00;;;-7.03;93.40
70468;BME280;57934;51.532;7.684;2022-12-18T04:42:16;101599.84;;;-6.84;93.68
70468;BME280;57934;51.532;7.684;2022-12-18T04:44:42;101607.38;;;-6.80;93.48
70468;BME280;57934;51.532;7.684;2022-12-18T04:47:08;101610.09;;;-6.84;93.48
70468;BME280;57934;51.532;7.684;2022-12-18T04:49:34;101613.63;;;-6.88;93.51
70468;BME280;57934;51.532;7.684;2022-12-18T04:51:59;101608.56;;;-6.90;93.44
70468;BME280;57934;51.532;7.684;2022-12-18T04:54:25;101610.09;;;-6.84;93.48
70468;BME280;57934;51.532;7.684;2022-12-18T04:56:51;101611.06;;;-6.88;93.79
70468;BME280;57934;51.532;7.684;2022-12-18T04:59:17;101606.44;;;-6.77;94.18
70468;BME280;57934;51.532;7.684;2022-12-18T05:01:43;101609.00;;;-6.77;93.63
70468;BME280;57934;51.532;7.684;2022-12-18T05:04:09;101600.00;;;-6.64;93.73
70468;BME280;57934;51.532;7.684;2022-12-18T05:06:35;101596.69;;;-6.66;94.00
70468;BME280;57934;51.532;7.684;2022-12-18T05:09:01;101589.25;;;-6.49;93.92
70468;BME280;57934;51.532;7.684;2022-12-18T05:11:27;101574.22;;;-6.34;93.71
70468;BME280;57934;51.532;7.684;2022-12-18T05:13:53;101577.56;;;-6.32;93.09
70468;BME280;57934;51.532;7.684;2022-12-18T05:16:19;101581.31;;;-5.92;93.00
70468;BME280;57934;51.532;7.684;2022-12-18T05:18:45;101585.53;;;-5.46;92.35
70468;BME280;57934;51.532;7.684;2022-12-18T05:21:11;101582.25;;;-5.06;90.72
70468;BME280;57934;51.532;7.684;2022-12-18T05:23:37;101562.88;;;-4.72;89.26
70468;BME280;57934;51.532;7.684;2022-12-18T05:26:04;101561.94;;;-4.49;87.49
70468;BME280;57934;51.532;7.684;2022-12-18T05:28:31;101547.19;;;-4.45;86.89
70468;BME280;57934;51.532;7.684;2022-12-18T05:31:00;101551.94;;;-4.36;86.00
70468;BME280;57934;51.532;7.684;2022-12-18T05:33:29;101558.44;;;-4.27;85.53
70468;BME280;57934;51.532;7.684;2022-12-18T05:35:57;101548.47;;;-4.35;85.29
70468;BME280;57934;51.532;7.684;2022-12-18T05:38:26;101544.34;;;-4.39;85.27
70468;BME280;57934;51.532;7.684;2022-12-18T05:40:53;101543.38;;;-4.37;85.36
70468;BME280;57934;51.532;7.684;2022-12-18T05:43:20;101546.53;;;-4.30;85.03
70468;BME280;57934;51.532;7.684;2022-12-18T05:45:47;101550.84;;;-4.30;84.77
70468;BME280;57934;51.532;7.684;2022-12-18T05:48:14;101547.44;;;-4.31;84.40
70468;BME280;57934;51.532;7.684;2022-12-18T05:50:41;101545.81;;;-4.34;84.41
70468;BME280;57934;51.532;7.684;2022-12-18T05:53:08;101546.91;;;-4.39;84.16
70468;BME280;57934;51.532;7.684;2022-12-18T05:55:34;101547.50;;;-4.33;83.91
70468;BME280;57934;51.532;7.684;2022-12-18T05:58:02;101556.47;;;-4.41;84.28
70468;BME280;57934;51.532;7.684;2022-12-18T06:00:28;101558.69;;;-4.34;84.26
70468;BME280;57934;51.532;7.684;2022-12-18T06:02:54;101562.47;;;-4.22;83.54
70468;BME280;57934;51.532;7.684;2022-12-18T06:05:20;101574.63;;;-4.25;83.62
70468;BME280;57934;51.532;7.684;2022-12-18T06:07:46;101577.41;;;-4.30;83.03
70468;BME280;57934;51.532;7.684;2022-12-18T06:10:12;101588.81;;;-4.36;83.08
70468;BME280;57934;51.532;7.684;2022-12-18T06:12:38;101585.84;;;-4.47;83.88
70468;BME280;57934;51.532;7.684;2022-12-18T06:15:04;101588.97;;;-4.39;83.42
70468;BME280;57934;51.532;7.684;2022-12-18T06:17:31;101589.72;;;-4.37;83.67
70468;BME280;57934;51.532;7.684;2022-12-18T06:19:58;101582.38;;;-4.46;83.76
70468;BME280;57934;51.532;7.684;2022-12-18T06:22:24;101589.53;;;-4.52;83.71
70468;BME280;57934;51.532;7.684;2022-12-18T06:24:50;101598.47;;;-4.41;83.52
70468;BME280;57934;51.532;7.684;2022-12-18T06:27:16;101607.22;;;-4.24;82.44
70468;BME280;57934;51.532;7.684;2022-12-18T06:29:42;101596.66;;;-4.18;81.79
70468;BME280;57934;51.532;7.684;2022-12-18T06:32:08;101595.44;;;-4.10;81.51
70468;BME280;57934;51.532;7.684;2022-12-18T06:34:34;101602.03;;;-4.04;81.10
70468;BME280;57934;51.532;7.684;2022-12-18T06:37:02;101601.56;;;-3.93;80.13
70468;BME280;57934;51.532;7.684;2022-12-18T06:39:28;101601.31;;;-3.87;79.23
70468;BME280;57934;51.532;7.684;2022-12-18T06:41:54;101600.06;;;-3.78;78.90
70468;BME280;57934;51.532;7.684;2022-12-18T06:44:20;101597.41;;;-3.77;78.72
70468;BME280;57934;51.532;7.684;2022-12-18T06:46:46;101594.72;;;-3.74;77.54
70468;BME280;57934;51.532;7.684;2022-12-18T06:49:12;101601.34;;;-3.68;77.36
70468;BME280;57934;51.532;7.684;2022-12-18T06:51:38;101595.13;;;-3.64;77.19
70468;BME280;57934;51.532;7.684;2022-12-18T06:54:04;101592.53;;;-3.45;76.63
70468;BME280;57934;51.532;7.684;2022-12-18T06:56:30;101587.13;;;-3.39;75.93
70468;BME280;57934;51.532;7.684;2022-12-18T06:58:56;101588.31;;;-3.46;76.04
70468;BME280;57934;51.532;7.684;2022-12-18T07:01:22;101589.06;;;-3.44;76.32
70468;BME280;57934;51.532;7.684;2022-12-18T07:03:53;101581.19;;;-3.41;75.52
70468;BME280;57934;51.532;7.684;2022-12-18T07:06:23;101585.59;;;-3.43;75.80
70468;BME280;57934;51.532;7.684;2022-12-18T07:08:49;101584.75;;;-3.44;75.81
70468;BME280;57934;51.532;7.684;2022-12-18T07:11:17;101588.09;;;-3.61;76.33
70468;BME280;57934;51.532;7.684;2022-12-18T07:13:43;101588.78;;;-3.76;77.05
70468;BME280;57934;51.532;7.684;2022-12-18T07:16:15;101589.94;;;-3.83;77.37
70468;BME280;57934;51.532;7.684;2022-12-18T07:18:41;101590.31;;;-3.91;77.51
70468;BME280;57934;51.532;7.684;2022-12-18T07:21:11;101583.47;;;-3.92;77.51
70468;BME280;57934;51.532;7.684;2022-12-18T07:23:37;101588.06;;;-3.98;77.58
70468;BME280;57934;51.532;7.684;2022-12-18T07:26:09;101573.19;;;-3.92;77.10
70468;BME280;57934;51.532;7.684;2022-12-18T07:28:37;101579.72;;;-3.66;75.58
70468;BME280;57934;51.532;7.684;2022-12-18T07:31:04;101577.66;;;-3.57;75.85
70468;BME280;57934;51.532;7.684;2022-12-18T07:33:33;101573.88;;;-3.50;75.01
70468;BME280;57934;51.532;7.684;2022-12-18T07:36:03;101571.41;;;-3.34;74.41
70468;BME280;57934;51.532;7.684;2022-12-18T07:38:31;101568.13;;;-3.19;73.98
70468;BME280;57934;51.532;7.684;2022-12-18T07:41:01;101567.97;;;-3.16;73.53
70468;BME280;57934;51.532;7.684;2022-12-18T07:43:27;101565.97;;;-3.28;73.71
70468;BME280;57934;51.532;7.684;2022-12-18T07:45:54;101564.38;;;-3.31;74.75
70468;BME280;57934;51.532;7.684;2022-12-18T07:48:20;101569.81;;;-3.37;74.49
70468;BME280;57934;51.532;7.684;2022-12-18T07:50:46;101575.28;;;-3.43;75.28
70468;BME280;57934;51.532;7.684;2022-12-18T07:53:12;101566.16;;;-3.50;74.91
70468;BME280;57934;51.532;7.684;2022-12-18T07:55:38;101568.59;;;-3.47;74.83
70468;BME280;57934;51.532;7.684;2022-12-18T07:58:04;101564.63;;;-3.54;75.39
70468;BME280;57934;51.532;7.684;2022-12-18T08:00:30;101568.72;;;-3.69;76.40
70468;BME280;57934;51.532;7.684;2022-12-18T08:02:57;101577.94;;;-3.82;77.02
70468;BME280;57934;51.532;7.684;2022-12-18T08:05:23;101582.78;;;-3.95;77.09
70468;BME280;57934;51.532;7.684;2022-12-18T08:07:49;101586.59;;;-4.04;77.26
70468;BME280;57934;51.532;7.684;2022-12-18T08:10:15;101596.13;;;-4.06;78.16
70468;BME280;57934;51.532;7.684;2022-12-18T08:12:41;101588.63;;;-4.11;77.95
70468;BME280;57934;51.532;7.684;2022-12-18T08:15:07;101580.59;;;-4.04;78.03
70468;BME280;57934;51.532;7.684;2022-12-18T08:17:33;101580.34;;;-3.98;77.99
70468;BME280;57934;51.532;7.684;2022-12-18T08:19:59;101581.59;;;-3.88;78.31
70468;BME280;57934;51.532;7.684;2022-12-18T08:22:25;101581.41;;;-3.84;77.94
70468;BME280;57934;51.532;7.684;2022-12-18T08:24:51;101571.66;;;-3.77;77.20
70468;BME280;57934;51.532;7.684;2022-12-18T08:27:17;101575.06;;;-3.76;77.31
70468;BME280;57934;51.532;7.684;2022-12-18T08:29:43;101565.41;;;-3.71;77.21
70468;BME280;57934;51.532;7.684;2022-12-18T08:32:09;101554.72;;;-3.64;77.50
70468;BME280;57934;51.532;7.684;2022-12-18T08:34:35;101557.53;;;-3.68;77.71
70468;BME280;57934;51.532;7.684;2022-12-18T08:37:01;101561.50;;;-3.61;77.08
70468;BME280;57934;51.532;7.684;2022-12-18T08:39:27;101554.09;;;-3.50;76.88
70468;BME280;57934;51.532;7.684;2022-12-18T08:41:53;101550.31;;;-3.43;76.72
70468;BME280;57934;51.532;7.684;2022-12-18T08:44:38;101542.78;;;-3.28;75.85
70468;BME280;57934;51.532;7.684;2022-12-18T08:47:07;101526.72;;;-2.99;75.68
70468;BME280;57934;51.532;7.684;2022-12-18T08:49:34;101529.09;;;-2.77;75.33
70468;BME280;57934;51.532;7.684;2022-12-18T08:52:00;101520.09;;;-2.35;74.35
70468;BME280;57934;51.532;7.684;2022-12-18T08:54:28;101506.25;;;-2.18;73.05
70468;BME280;57934;51.532;7.684;2022-12-18T08:56:54;101504.31;;;-1.50;71.04
70468;BME280;57934;51.532;7.684;2022-12-18T08:59:20;101490.97;;;-0.53;69.16
70468;BME280;57934;51.532;7.684;2022-12-18T09:01:47;101496.28;;;0.15;67.50
70468;BME280;57934;51.532;7.684;2022-12-18T09:04:13;101502.19;;;0.17;65.10
70468;BME280;57934;51.532;7.684;2022-12-18T09:06:39;101503.47;;;-0.45;66.08
70468;BME280;57934;51.532;7.684;2022-12-18T09:09:06;101511.75;;;-1.13;67.60
70468;BME280;57934;51.532;7.684;2022-12-18T09:11:32;101533.66;;;-1.35;69.45
70468;BME280;57934;51.532;7.684;2022-12-18T09:14:00;101534.25;;;-1.30;69.80
70468;BME280;57934;51.532;7.684;2022-12-18T09:16:27;101535.34;;;-0.74;68.22
70468;BME280;57934;51.532;7.684;2022-12-18T09:18:58;101527.03;;;0.21;65.60
70468;BME280;57934;51.532;7.684;2022-12-18T09:21:30;101528.38;;;0.68;63.33
70468;BME280;57934;51.532;7.684;2022-12-18T09:23:56;101520.59;;;1.08;62.33
70468;BME280;57934;51.532;7.684;2022-12-18T09:26:23;101514.09;;;1.41;60.56
70468;BME280;57934;51.532;7.684;2022-12-18T09:28:50;101508.78;;;1.30;60.12
70468;BME280;57934;51.532;7.684;2022-12-18T09:31:18;101497.91;;;0.85;57.74
70468;BME280;57934;51.532;7.684;2022-12-18T09:33:44;101489.56;;;0.40;60.06
70468;BME280;57934;51.532;7.684;2022-12-18T09:36:13;101488.59;;;0.14;58.83
70468;BME280;57934;51.532;7.684;2022-12-18T09:38:39;101491.00;;;0.17;57.71
70468;BME280;57934;51.532;7.684;2022-12-18T09:41:32;101503.41;;;0.26;57.63
70468;BME280;57934;51.532;7.684;2022-12-18T09:44:21;101508.47;;;0.28;58.33
70468;BME280;57934;51.532;7.684;2022-12-18T09:49:50;101493.31;;;0.21;57.05
70468;BME280;57934;51.532;7.684;2022-12-18T09:52:33;101497.75;;;0.19;56.88
70468;BME280;57934;51.532;7.684;2022-12-18T09:55:11;101493.31;;;0.21;56.91
70468;BME280;57934;51.532;7.684;2022-12-18T09:57:42;101488.81;;;0.11;57.22
70468;BME280;57934;51.532;7.684;2022-12-18T10:02:40;101487.72;;;0.01;57.42
70468;BME280;57934;51.532;7.684;2022-12-18T10:05:10;101487.41;;;0.05;56.76
70468;BME280;57934;51.532;7.684;2022-12-18T10:08:29;101491.78;;;0.05;56.97
70468;BME280;57934;51.532;7.684;2022-12-18T10:10:42;101481.19;;;0.22;55.91
70468;BME280;57934;51.532;7.684;2022-12-18T10:13:23;101493.09;;;0.39;56.77
70468;BME280;57934;51.532;7.684;2022-12-18T10:16:35;101483.41;;;0.28;59.58
70468;BME280;57934;51.532;7.684;2022-12-18T10:27:09;101461.34;;;0.21;61.63
70468;BME280;57934;51.532;7.684;2022-12-18T10:29:35;101456.78;;;0.39;61.86
70468;BME280;57934;51.532;7.684;2022-12-18T10:32:01;101448.75;;;0.56;61.27
70468;BME280;57934;51.532;7.684;2022-12-18T10:34:27;101450.22;;;0.73;61.21
70468;BME280;57934;51.532;7.684;2022-12-18T10:36:53;101451.63;;;0.91;60.81
70468;BME280;57934;51.532;7.684;2022-12-18T10:39:21;101461.91;;;1.06;58.52
70468;BME280;57934;51.532;7.684;2022-12-18T10:41:49;101452.34;;;1.06;57.03
70468;BME280;57934;51.532;7.684;2022-12-18T10:44:23;101448.50;;;1.25;56.75
70468;BME280;57934;51.532;7.684;2022-12-18T10:46:53;101437.72;;;1.31;55.89
70468;BME280;57934;51.532;7.684;2022-12-18T10:49:25;101422.84;;;1.33;55.80
70468;BME280;57934;51.532;7.684;2022-12-18T10:52:10;101420.44;;;1.30;55.65
70468;BME280;57934;51.532;7.684;2022-12-18T10:54:39;101413.59;;;1.41;55.66
70468;BME280;57934;51.532;7.684;2022-12-18T10:57:29;101407.97;;;1.35;54.43
70468;BME280;57934;51.532;7.684;2022-12-18T10:59:57;101409.09;;;1.43;54.51
70468;BME280;57934;51.532;7.684;2022-12-18T11:02:33;101399.63;;;1.55;54.05
70468;BME280;57934;51.532;7.684;2022-12-18T11:05:00;101399.19;;;1.61;54.41
70468;BME280;57934;51.532;7.684;2022-12-18T11:07:49;101401.28;;;1.69;54.36
70468;BME280;57934;51.532;7.684;2022-12-18T11:10:20;101396.47;;;1.76;53.42
70468;BME280;57934;51.532;7.684;2022-12-18T11:12:47;101402.03;;;1.82;54.22
70468;BME280;57934;51.532;7.684;2022-12-18T11:15:16;101400.44;;;1.92;53.25
70468;BME280;57934;51.532;7.684;2022-12-18T11:17:48;101396.38;;;2.01;53.59
70468;BME280;57934;51.532;7.684;2022-12-18T11:20:34;101385.59;;;2.19;53.73
70468;BME280;57934;51.532;7.684;2022-12-18T11:23:03;101389.44;;;2.13;55.19
70468;BME280;57934;51.532;7.684;2022-12-18T11:25:31;101390.03;;;2.41;54.50
70468;BME280;57934;51.532;7.684;2022-12-18T11:28:00;101377.47;;;2.70;51.47
70468;BME280;57934;51.532;7.684;2022-12-18T11:30:34;101366.13;;;2.82;50.43
70468;BME280;57934;51.532;7.684;2022-12-18T11:33:17;101359.84;;;2.73;48.75
70468;BME280;57934;51.532;7.684;2022-12-18T11:35:48;101351.22;;;2.84;50.25
70468;BME280;57934;51.532;7.684;2022-12-18T11:38:22;101359.59;;;2.65;49.59
70468;BME280;57934;51.532;7.684;2022-12-18T11:40:58;101363.34;;;2.50;49.48
70468;BME280;57934;51.532;7.684;2022-12-18T11:43:35;101354.44;;;2.41;49.67
70468;BME280;57934;51.532;7.684;2022-12-18T11:46:23;101352.44;;;2.45;49.78
70468;BME280;57934;51.532;7.684;2022-12-18T11:48:58;101353.03;;;2.48;49.03
70468;BME280;57934;51.532;7.684;2022-12-18T11:51:50;101367.97;;;2.57;49.19
70468;BME280;57934;51.532;7.684;2022-12-18T11:54:17;101359.91;;;2.49;48.97
70468;BME280;57934;51.532;7.684;2022-12-18T11:57:02;101348.88;;;2.46;48.93
70468;BME280;57934;51.532;7.684;2022-12-18T11:59:53;101346.25;;;2.34;48.22
70468;BME280;57934;51.532;7.684;2022-12-18T12:25:09;101299.03;;;2.28;49.43
70468;BME280;57934;51.532;7.684;2022-12-18T12:30:30;101294.81;;;2.38;50.37
70468;BME280;57934;51.532;7.684;2022-12-18T12:33:23;101300.47;;;1.49;62.04
70468;BME280;57934;51.532;7.684;2022-12-18T12:36:03;101295.75;;;0.67;66.74
70468;BME280;57934;51.532;7.684;2022-12-18T12:38:41;101295.63;;;0.43;68.14
70468;BME280;57934;51.532;7.684;2022-12-18T12:41:14;101288.50;;;-0.06;70.88
70468;BME280;57934;51.532;7.684;2022-12-18T12:44:05;101285.59;;;-0.01;71.61
70468;BME280;57934;51.532;7.684;2022-12-18T12:46:37;101284.25;;;0.06;71.67
70468;BME280;57934;51.532;7.684;2022-12-18T12:49:12;101281.84;;;-0.10;72.22
70468;BME280;57934;51.532;7.684;2022-12-18T12:51:42;101272.63;;;-0.01;72.36
70468;BME280;57934;51.532;7.684;2022-12-18T12:54:18;101264.66;;;0.02;72.38
70468;BME280;57934;51.532;7.684;2022-12-18T12:56:54;101257.47;;;-0.07;72.73
70468;BME280;57934;51.532;7.684;2022-12-18T13:02:20;101269.28;;;-0.16;74.43
70468;BME280;57934;51.532;7.684;2022-12-18T13:05:06;101255.28;;;-0.13;74.42
70468;BME280;57934;51.532;7.684;2022-12-18T13:07:41;101250.53;;;-0.07;74.17
70468;BME280;57934;51.532;7.684;2022-12-18T13:13:05;101252.09;;;-0.04;75.21
70468;BME280;57934;51.532;7.684;2022-12-18T13:16:03;101252.06;;;-0.17;75.72
70468;BME280;57934;51.532;7.684;2022-12-18T13:18:29;101247.88;;;-0.32;76.97
70468;BME280;57934;51.532;7.684;2022-12-18T13:26:27;101233.00;;;-0.56;78.24
70468;BME280;57934;51.532;7.684;2022-12-18T13:31:13;101244.66;;;-0.63;78.34
70468;BME280;57934;51.532;7.684;2022-12-18T13:33:41;101251.50;;;-0.62;78.27
70468;BME280;57934;51.532;7.684;2022-12-18T13:36:16;101252.84;;;-0.56;78.57
70468;BME280;57934;51.532;7.684;2022-12-18T13:39:10;101248.59;;;-0.57;79.48
70468;BME280;57934;51.532;7.684;2022-12-18T13:41:36;101241.03;;;-0.60;79.72
70468;BME280;57934;51.532;7.684;2022-12-18T13:44:23;101233.38;;;-0.62;80.06
70468;BME280;57934;51.532;7.684;2022-12-18T13:46:51;101237.09;;;-0.66;79.83
70468;BME280;57934;51.532;7.684;2022-12-18T13:49:37;101233.38;;;-0.62;80.19
70468;BME280;57934;51.532;7.684;2022-12-18T13:52:16;101233.38;;;-0.62;80.16
70468;BME280;57934;51.532;7.684;2022-12-18T13:54:46;101231.09;;;-0.66;79.73
70468;BME280;57934;51.532;7.684;2022-12-18T13:57:33;101239.38;;;-0.61;80.08
70468;BME280;57934;51.532;7.684;2022-12-18T14:00:24;101235.78;;;-0.59;79.64
70468;BME280;57934;51.532;7.684;2022-12-18T14:02:51;101239.19;;;-0.58;79.64
70468;BME280;57934;51.532;7.684;2022-12-18T14:07:52;101241.28;;;-0.51;79.56
70468;BME280;57934;51.532;7.684;2022-12-18T14:10:18;101241.28;;;-0.51;79.49
70468;BME280;57934;51.532;7.684;2022-12-18T14:12:47;101230.47;;;-0.57;79.75
70468;BME280;57934;51.532;7.684;2022-12-18T14:18:03;101233.91;;;-0.57;79.89
70468;BME280;57934;51.532;7.684;2022-12-18T14:20:35;101236.94;;;-0.50;77.95
70468;BME280;57934;51.532;7.684;2022-12-18T14:23:01;101234.34;;;-0.50;77.74
70468;BME280;57934;51.532;7.684;2022-12-18T14:25:29;101227.50;;;-0.51;78.68